Monday, June 25, 2018, 1:37 PM GMT
Back to Local

CWFQ, Frelighsburg

Location: , , Canada Lat: 45.05
Local Time: 1:37 PM GMT (13:37 GMT) Lon: -72.833
Time Zone: GMT Elev: 498 ft

Show me the last for .
Show Coded

Time T Td Feel RH Dir Speed Gust Alt SLP Vis Weather Sky Remarks
2018-06-25 13:00 58 53 - 80 360° 9 - - 30.02 0 None
2018-06-25 12:00 55 54 - 94 320° 5 - - 30.00 0 None
2018-06-25 11:00 55 54 - 96 300° 2 - - 29.97 0 1-hr Precip Total: 0.01"
2018-06-25 10:00 54 54 - 98 320° 3 - - 29.96 0 None
2018-06-25 09:00 53 54 - 105 330° 5 - - 29.93 0 None
2018-06-25 08:00 55 53 - 93 340° 6 - - 29.92 0 None
2018-06-25 07:00 55 54 - 98 350° 8 - - 29.91 0 None
2018-06-25 06:00 55 55 - 98 350° 10 - - 29.90 0 1-hr Precip Total: 0.04"
2018-06-25 05:00 56 56 - 99 340° 8 - - 29.90 0 1-hr Precip Total: 0.08"
2018-06-25 04:00 56 56 - 98 350° 9 - - 29.89 0 1-hr Precip Total: 0.04"
2018-06-25 03:00 56 56 - 98 340° 7 - - 29.89 0 1-hr Precip Total: 0.03"
2018-06-25 02:00 58 57 - 98 320° 3 - - 29.90 0 1-hr Precip Total: 0.02"
2018-06-25 01:00 58 57 - 97 10° 7 - - 29.87 0 1-hr Precip Total: 0.02"
2018-06-25 00:00 58 57 - 94 10° 9 - - 29.86 0 1-hr Precip Total: 0.02"
2018-06-24 23:00 62 57 - 85 10° 8 - - 29.85 0 None
2018-06-24 22:00 68 60 - 75 310° 2 - - 29.83 0 None
2018-06-24 21:00 68 59 - 73 320° 2 - - 29.83 0 None
2018-06-24 20:00 68 60 - 75 350° 3 - - 29.82 0 None
2018-06-24 19:00 67 58 - 74 290° 2 - - 29.82 0 None
2018-06-24 18:00 66 59 - 77 320° 2 - - 29.82 0 None
2018-06-24 17:00 63 58 - 85 240° 1 - - 29.82 0 None
2018-06-24 16:00 61 59 - 93 280° 2 - - 29.83 0 None
2018-06-24 15:00 60 57 - 89 210° 1 - - 29.81 0 1-hr Precip Total: 0.01"
2018-06-24 14:00 59 58 - 96 200° 2 - - 29.81 0 1-hr Precip Total: 0.02"

Support USWX by starting your Amazon purchase here.